createdAt,value
2022-08-05T00:01:36.587Z,97355.56
2022-08-05T00:04:18.124Z,97355.41
2022-08-05T00:06:47.202Z,97355.25
2022-08-05T00:09:15.707Z,97356.19
2022-08-05T00:11:49.211Z,97364.06
2022-08-05T00:14:19.103Z,97357.13
2022-08-05T00:16:52.548Z,97367.38
2022-08-05T00:19:33.801Z,97362.78
2022-08-05T00:22:12.816Z,97357.63
2022-08-05T00:24:42.599Z,97362.63
2022-08-05T00:27:16.766Z,97358.72
2022-08-05T00:29:44.670Z,97357.59
2022-08-05T00:32:14.833Z,97355.72
2022-08-05T00:35:03.390Z,97359.50
2022-08-05T00:37:51.115Z,97350.69
2022-08-05T00:40:27.815Z,97347.88
2022-08-05T00:42:58.791Z,97354.63
2022-08-05T00:45:38.122Z,97356.19
2022-08-05T00:48:09.507Z,97351.81
2022-08-05T00:50:41.271Z,97354.94
2022-08-05T00:54:00.109Z,97349.75
2022-08-05T00:55:57.566Z,97350.38
2022-08-05T00:58:27.174Z,97352.69
2022-08-05T01:00:55.317Z,97347.19
2022-08-05T01:03:23.485Z,97346.41
2022-08-05T01:05:54.518Z,97344.34
2022-08-05T01:08:39.899Z,97351.75
2022-08-05T01:11:21.946Z,97340.59
2022-08-05T01:14:00.100Z,97339.78
2022-08-05T01:17:09.039Z,97338.06
2022-08-05T01:20:02.026Z,97338.22
2022-08-05T01:22:53.250Z,97327.69
2022-08-05T01:26:21.987Z,97333.19
2022-08-05T01:29:11.300Z,97333.63
2022-08-05T01:31:50.118Z,97328.28
2022-08-05T01:34:35.895Z,97327.81
2022-08-05T01:37:24.860Z,97325.94
2022-08-05T01:39:58.848Z,97323.09
2022-08-05T01:42:30.212Z,97319.34
2022-08-05T01:45:02.315Z,97321.03
2022-08-05T01:47:39.537Z,97326.38
2022-08-05T01:50:28.779Z,97319.16
2022-08-05T01:53:12.122Z,97319.00
2022-08-05T01:55:45.276Z,97321.19
2022-08-05T01:58:16.641Z,97319.94
2022-08-05T02:00:52.240Z,97315.69
2022-08-05T02:03:38.316Z,97317.72
2022-08-05T02:06:33.240Z,97321.03
2022-08-05T02:08:58.983Z,97311.16
2022-08-05T02:11:37.642Z,97315.56
2022-08-05T02:14:20.943Z,97310.03
2022-08-05T02:17:00.733Z,97308.91
2022-08-05T02:19:27.954Z,97305.94
2022-08-05T02:22:05.384Z,97309.41
2022-08-05T02:24:40.817Z,97307.94
2022-08-05T02:27:11.265Z,97299.78
2022-08-05T02:29:59.585Z,97305.75
2022-08-05T02:32:31.913Z,97299.16
2022-08-05T02:35:15.206Z,97296.16
2022-08-05T02:37:56.962Z,97298.97
2022-08-05T02:40:27.912Z,97300.69
2022-08-05T02:42:56.873Z,97295.69
2022-08-05T02:45:26.491Z,97296.75
2022-08-05T02:48:07.701Z,97290.16
2022-08-05T02:50:43.919Z,97298.47
2022-08-05T02:53:18.928Z,97297.69
2022-08-05T02:56:00.008Z,97294.34
2022-08-05T02:58:30.676Z,97293.59
2022-08-05T03:01:02.289Z,97295.16
2022-08-05T03:03:33.783Z,97296.25
2022-08-05T03:06:55.670Z,97294.19
2022-08-05T03:08:52.445Z,97291.03
2022-08-05T03:11:55.561Z,97285.22
2022-08-05T03:14:13.382Z,97280.38
2022-08-05T03:16:41.283Z,97289.31
2022-08-05T03:19:17.029Z,97286.19
2022-08-05T03:21:56.519Z,97291.84
2022-08-05T03:24:30.070Z,97285.91
2022-08-05T03:27:00.111Z,97294.19
2022-08-05T03:29:46.047Z,97309.25
2022-08-05T03:32:19.729Z,97292.00
2022-08-05T03:34:51.165Z,97306.28
2022-08-05T03:37:21.144Z,97303.78
2022-08-05T03:40:01.617Z,97296.94
2022-08-05T03:42:32.249Z,97292.22
2022-08-05T03:45:01.854Z,97295.09
2022-08-05T03:47:49.366Z,97294.00
2022-08-05T03:50:16.991Z,97294.03
2022-08-05T03:56:01.011Z,97304.88
2022-08-05T03:56:35.182Z,97302.25
2022-08-05T03:59:20.365Z,97295.84
2022-08-05T04:01:52.297Z,97297.25
2022-08-05T04:04:22.288Z,97306.00
2022-08-05T04:06:54.994Z,97293.97
2022-08-05T04:09:26.414Z,97297.06
2022-08-05T04:11:56.871Z,97302.81
2022-08-05T04:14:29.878Z,97298.59
2022-08-05T04:17:00.409Z,97302.03
2022-08-05T04:19:29.773Z,97296.78
2022-08-05T04:22:09.044Z,97290.03
2022-08-05T04:24:52.598Z,97294.84
2022-08-05T04:27:33.156Z,97295.47
2022-08-05T04:30:10.132Z,97291.00
2022-08-05T04:32:37.809Z,97291.06
2022-08-05T04:35:17.660Z,97291.38
2022-08-05T04:38:01.250Z,97298.03
2022-08-05T04:40:34.377Z,97294.91
2022-08-05T04:43:02.076Z,97287.38
2022-08-05T04:45:47.839Z,97284.75
2022-08-05T04:48:18.648Z,97295.69
2022-08-05T04:51:03.813Z,97300.09
2022-08-05T04:53:39.687Z,97294.09
2022-08-05T04:56:33.381Z,97295.81
2022-08-05T04:58:57.587Z,97303.31
2022-08-05T05:02:06.057Z,97299.81
2022-08-05T05:04:13.434Z,97309.50
2022-08-05T05:06:44.789Z,97306.28
2022-08-05T05:09:17.388Z,97302.34
2022-08-05T05:11:55.534Z,97296.94
2022-08-05T05:14:28.107Z,97298.22
2022-08-05T05:17:01.113Z,97300.09
2022-08-05T05:19:36.765Z,97305.91
2022-08-05T05:22:23.510Z,97303.34
2022-08-05T05:25:00.157Z,97304.97
2022-08-05T05:27:41.699Z,97315.06
2022-08-05T05:30:28.885Z,97318.06
2022-08-05T05:33:08.918Z,97306.25
2022-08-05T05:35:47.564Z,97312.00
2022-08-05T05:38:22.584Z,97314.28
2022-08-05T05:40:58.045Z,97310.41
2022-08-05T05:43:54.645Z,97324.28
2022-08-05T05:46:16.043Z,97314.75
2022-08-05T05:48:48.382Z,97311.97
2022-08-05T05:51:27.854Z,97312.66
2022-08-05T05:53:59.505Z,97318.41
2022-08-05T05:56:34.384Z,97318.88
2022-08-05T05:59:07.761Z,97314.25
2022-08-05T06:01:41.497Z,97312.81
2022-08-05T06:04:25.189Z,97309.03
2022-08-05T06:06:52.715Z,97312.00
2022-08-05T06:09:25.669Z,97314.78
2022-08-05T06:12:01.414Z,97324.69
2022-08-05T06:14:34.609Z,97316.81
2022-08-05T06:17:22.011Z,97311.84
2022-08-05T06:19:56.895Z,97311.22
2022-08-05T06:22:33.518Z,97312.88
2022-08-05T06:25:24.495Z,97318.25
2022-08-05T06:28:10.411Z,97312.47
2022-08-05T06:30:41.357Z,97318.06
2022-08-05T06:33:10.683Z,97319.25
2022-08-05T06:36:03.626Z,97313.69
2022-08-05T06:38:36.296Z,97317.34
2022-08-05T06:41:07.774Z,97311.94
2022-08-05T06:43:57.782Z,97311.19
2022-08-05T06:46:30.147Z,97313.59
2022-08-05T06:49:01.256Z,97307.16
2022-08-05T06:51:30.941Z,97315.97
2022-08-05T06:54:00.227Z,97312.50
2022-08-05T06:56:34.346Z,97318.19
2022-08-05T06:59:09.461Z,97316.50
2022-08-05T07:01:40.685Z,97309.75
2022-08-05T07:04:10.376Z,97312.81
2022-08-05T07:06:37.922Z,97315.41
2022-08-05T07:09:05.606Z,97310.47
2022-08-05T07:11:36.961Z,97313.22
2022-08-05T07:14:30.022Z,97308.03
2022-08-05T07:18:08.338Z,97312.69
2022-08-05T07:20:34.116Z,97316.00
2022-08-05T07:22:38.323Z,97314.94
2022-08-05T07:25:22.832Z,97317.75
2022-08-05T07:27:57.276Z,97320.00
2022-08-05T07:30:40.098Z,97318.13
2022-08-05T07:33:15.704Z,97324.47
2022-08-05T07:36:04.525Z,97305.25
2022-08-05T07:38:43.748Z,97307.59
2022-08-05T07:42:09.119Z,97314.84
2022-08-05T07:44:14.359Z,97316.97
2022-08-05T07:46:48.459Z,97316.28
2022-08-05T07:49:18.572Z,97310.66
2022-08-05T07:51:52.898Z,97306.47
2022-08-05T07:54:31.226Z,97304.16
2022-08-05T07:57:22.438Z,97299.50
2022-08-05T07:59:52.469Z,97308.09
2022-08-05T08:02:42.996Z,97305.41
2022-08-05T08:05:17.628Z,97313.25
2022-08-05T08:07:59.940Z,97308.47
2022-08-05T08:10:29.198Z,97313.63
2022-08-05T08:12:58.604Z,97314.19
2022-08-05T08:16:35.947Z,97310.84
2022-08-05T08:18:14.178Z,97313.84
2022-08-05T08:21:00.009Z,97313.50
2022-08-05T08:24:01.278Z,97312.00
2022-08-05T08:26:16.552Z,97307.91
2022-08-05T08:29:22.220Z,97308.13
2022-08-05T08:31:46.342Z,97317.97
2022-08-05T08:34:30.569Z,97314.97
2022-08-05T08:37:03.318Z,97310.31
2022-08-05T08:39:33.364Z,97312.84
2022-08-05T08:42:15.258Z,97313.41
2022-08-05T08:45:18.466Z,97309.47
2022-08-05T08:48:07.357Z,97316.97
2022-08-05T08:51:04.191Z,97311.13
2022-08-05T08:53:27.600Z,97307.44
2022-08-05T08:56:03.748Z,97302.25
2022-08-05T08:58:37.678Z,97310.38
2022-08-05T09:01:16.252Z,97306.50
2022-08-05T09:03:57.594Z,97303.22
2022-08-05T09:06:29.600Z,97311.38
2022-08-05T09:09:00.661Z,97301.81
2022-08-05T09:11:51.346Z,97302.22
2022-08-05T09:14:56.816Z,97311.41
2022-08-05T09:17:40.231Z,97298.19
2022-08-05T09:20:02.436Z,97290.91
2022-08-05T09:23:19.108Z,97286.53
2022-08-05T09:26:03.110Z,97283.22
2022-08-05T09:28:34.051Z,97281.53
2022-08-05T09:31:23.000Z,97287.28
2022-08-05T09:33:59.658Z,97285.84
2022-08-05T09:36:45.661Z,97280.28
2022-08-05T09:39:41.167Z,97283.66
2022-08-05T09:42:24.002Z,97284.50
2022-08-05T09:44:57.400Z,97289.97
2022-08-05T09:47:47.978Z,97283.94
2022-08-05T09:50:38.199Z,97284.34
2022-08-05T09:53:08.734Z,97287.56
2022-08-05T09:55:58.453Z,97284.06
2022-08-05T09:58:26.079Z,97281.97
2022-08-05T10:01:15.421Z,97284.22
2022-08-05T10:04:12.988Z,97273.59
2022-08-05T10:06:59.380Z,97270.78
2022-08-05T10:09:29.655Z,97272.41
2022-08-05T10:12:18.882Z,97265.13
2022-08-05T10:15:17.360Z,97264.38
2022-08-05T10:18:17.438Z,97255.16
2022-08-05T10:20:58.014Z,97260.28
2022-08-05T10:23:59.345Z,97255.31
2022-08-05T10:26:32.425Z,97254.81
2022-08-05T10:29:01.306Z,97254.59
2022-08-05T10:32:54.990Z,97253.59
2022-08-05T10:34:16.978Z,97259.91
2022-08-05T10:36:45.215Z,97256.38
2022-08-05T10:39:25.147Z,97249.47
2022-08-05T10:42:18.810Z,97242.97
2022-08-05T10:44:59.964Z,97242.81
2022-08-05T10:47:36.706Z,97249.94
2022-08-05T10:50:32.318Z,97249.75
2022-08-05T10:53:01.796Z,97249.72
2022-08-05T10:55:38.583Z,97246.13
2022-08-05T10:58:20.629Z,97244.56
2022-08-05T11:00:48.560Z,97235.97
2022-08-05T11:03:26.681Z,97241.44
2022-08-05T11:06:15.834Z,97235.38
2022-08-05T11:09:18.908Z,97228.25
2022-08-05T11:11:59.880Z,97228.03
2022-08-05T11:15:01.026Z,97226.03
2022-08-05T11:17:57.163Z,97222.69
2022-08-05T11:20:43.675Z,97227.94
2022-08-05T11:24:04.264Z,97227.16
2022-08-05T11:26:43.408Z,97223.47
2022-08-05T11:29:36.003Z,97226.72
2022-08-05T11:32:28.563Z,97219.16
2022-08-05T11:34:57.727Z,97217.31
2022-08-05T11:38:37.206Z,97218.28
2022-08-05T11:41:34.758Z,97217.59
2022-08-05T11:44:05.994Z,97219.13
2022-08-05T11:46:58.711Z,97213.50
2022-08-05T11:49:36.377Z,97211.13
2022-08-05T11:52:08.788Z,97218.50
2022-08-05T11:54:41.388Z,97211.75
2022-08-05T11:57:25.024Z,97206.38
2022-08-05T11:59:54.577Z,97208.41
2022-08-05T12:02:36.097Z,97210.63
2022-08-05T12:05:07.360Z,97213.13
2022-08-05T12:08:07.282Z,97206.75
2022-08-05T12:10:42.859Z,97198.72
2022-08-05T12:13:27.935Z,97200.16
2022-08-05T12:16:17.675Z,97202.13
2022-08-05T12:18:49.608Z,97195.97
2022-08-05T12:21:39.077Z,97199.19
2022-08-05T12:24:17.194Z,97191.25
2022-08-05T12:26:52.841Z,97198.22
2022-08-05T12:29:27.085Z,97198.41
2022-08-05T12:31:57.757Z,97201.84
2022-08-05T12:34:37.157Z,97195.25
2022-08-05T12:37:17.450Z,97201.13
2022-08-05T12:39:54.641Z,97201.03
2022-08-05T12:42:31.353Z,97193.34
2022-08-05T12:45:10.652Z,97191.06
2022-08-05T12:47:43.500Z,97194.81
2022-08-05T12:50:26.270Z,97188.28
2022-08-05T12:52:59.737Z,97182.94
2022-08-05T12:55:32.756Z,97181.84
2022-08-05T12:58:52.625Z,97184.47
2022-08-05T13:02:00.324Z,97171.28
2022-08-05T13:03:41.933Z,97172.72
2022-08-05T13:06:17.975Z,97171.22
2022-08-05T13:08:51.412Z,97172.13
2022-08-05T13:12:01.113Z,97175.88
2022-08-05T13:14:24.776Z,97168.28
2022-08-05T13:17:41.254Z,97173.97
2022-08-05T13:20:23.439Z,97171.41
2022-08-05T13:22:53.788Z,97174.59
2022-08-05T13:25:21.922Z,97170.25
2022-08-05T13:27:53.195Z,97169.28
2022-08-05T13:30:33.834Z,97168.63
2022-08-05T13:33:04.522Z,97167.59
2022-08-05T13:35:47.073Z,97174.47
2022-08-05T13:38:30.958Z,97171.47
2022-08-05T13:41:04.005Z,97172.59
2022-08-05T13:43:43.546Z,97165.72
2022-08-05T13:46:14.249Z,97169.56
2022-08-05T13:48:58.128Z,97171.63
2022-08-05T13:51:40.434Z,97171.28
2022-08-05T13:54:11.716Z,97171.06
2022-08-05T13:56:51.499Z,97165.63
2022-08-05T13:59:24.060Z,97164.19
2022-08-05T14:02:00.064Z,97161.78
2022-08-05T14:04:52.737Z,97164.03
2022-08-05T14:07:59.476Z,97171.72
2022-08-05T14:10:28.008Z,97164.88
2022-08-05T14:12:57.460Z,97156.31
2022-08-05T14:16:07.236Z,97148.28
2022-08-05T14:18:14.730Z,97154.47
2022-08-05T14:20:48.131Z,97150.13
2022-08-05T14:23:24.509Z,97150.13
2022-08-05T14:25:59.004Z,97147.41
2022-08-05T14:28:30.942Z,97150.13
2022-08-05T14:31:00.409Z,97142.59
2022-08-05T14:33:32.600Z,97138.97
2022-08-05T14:36:15.905Z,97139.91
2022-08-05T14:38:49.917Z,97128.78
2022-08-05T14:41:18.665Z,97129.69
2022-08-05T14:43:57.753Z,97129.47
2022-08-05T14:46:31.488Z,97130.53
2022-08-05T14:49:07.592Z,97128.06
2022-08-05T14:51:42.874Z,97129.38
2022-08-05T14:54:27.746Z,97116.78
2022-08-05T14:56:57.473Z,97132.16
2022-08-05T14:59:29.518Z,97119.91
2022-08-05T15:02:14.642Z,97125.00
2022-08-05T15:04:43.267Z,97123.06
2022-08-05T15:07:10.651Z,97126.72
2022-08-05T15:09:57.927Z,97126.13
2022-08-05T15:12:40.890Z,97120.75
2022-08-05T15:15:16.333Z,97118.50
2022-08-05T15:17:46.685Z,97125.94
2022-08-05T15:20:19.319Z,97124.50
2022-08-05T15:22:55.083Z,97117.75
2022-08-05T15:25:51.406Z,97118.53
2022-08-05T15:28:15.013Z,97123.28
2022-08-05T15:30:46.859Z,97120.91
2022-08-05T15:33:56.705Z,97119.66
2022-08-05T15:36:16.900Z,97115.16
2022-08-05T15:38:46.608Z,97113.44
2022-08-05T15:41:22.059Z,97118.38
2022-08-05T15:43:54.660Z,97112.72
2022-08-05T15:46:24.027Z,97108.91
2022-08-05T15:48:58.738Z,97102.44
2022-08-05T15:52:04.324Z,97115.06
2022-08-05T15:54:17.886Z,97109.25
2022-08-05T15:56:45.235Z,97117.72
2022-08-05T15:59:20.199Z,97109.75
2022-08-05T16:01:53.423Z,97111.53
2022-08-05T16:04:25.456Z,97106.91
2022-08-05T16:06:57.049Z,97109.19
2022-08-05T16:09:25.835Z,97110.91
2022-08-05T16:11:54.361Z,97112.59
2022-08-05T16:14:23.065Z,97109.56
2022-08-05T16:16:51.203Z,97106.50
2022-08-05T16:20:03.472Z,97114.38
2022-08-05T16:22:07.054Z,97109.91
2022-08-05T16:24:41.021Z,97111.59
2022-08-05T16:27:18.389Z,97112.47
2022-08-05T16:29:50.997Z,97111.41
2022-08-05T16:32:23.447Z,97111.47
2022-08-05T16:34:57.568Z,97103.09
2022-08-05T16:38:15.436Z,97110.56
2022-08-05T16:40:28.802Z,97111.47
2022-08-05T16:42:56.437Z,97106.09
2022-08-05T16:46:05.963Z,97109.31
2022-08-05T16:48:11.068Z,97104.31
2022-08-05T16:50:53.472Z,97096.66
2022-08-05T16:53:22.894Z,97102.16
2022-08-05T16:55:59.376Z,97095.97
2022-08-05T16:58:26.902Z,97099.13
2022-08-05T17:00:54.448Z,97099.59
2022-08-05T17:03:22.437Z,97096.50
2022-08-05T17:05:54.328Z,97104.66
2022-08-05T17:08:35.864Z,97099.66
2022-08-05T17:11:16.929Z,97099.72
2022-08-05T17:13:45.958Z,97101.69
2022-08-05T17:16:32.614Z,97102.84
2022-08-05T17:19:01.515Z,97106.72
2022-08-05T17:21:35.804Z,97106.72
2022-08-05T17:24:19.600Z,97105.97
2022-08-05T17:26:58.266Z,97104.00
2022-08-05T17:29:33.523Z,97102.81
2022-08-05T17:32:17.521Z,97105.88
2022-08-05T17:34:49.203Z,97106.22
2022-08-05T17:37:40.020Z,97101.94
2022-08-05T17:40:14.500Z,97106.47
2022-08-05T17:42:49.860Z,97104.06
2022-08-05T17:45:22.061Z,97109.78
2022-08-05T17:47:56.084Z,97109.72
2022-08-05T17:50:28.341Z,97106.53
2022-08-05T17:53:04.642Z,97120.34
2022-08-05T17:55:37.235Z,97114.47
2022-08-05T17:58:11.169Z,97121.28
2022-08-05T18:00:50.678Z,97113.81
2022-08-05T18:06:11.863Z,97118.03
2022-08-05T18:08:46.220Z,97121.31
2022-08-05T18:11:24.457Z,97110.81
2022-08-05T18:14:03.191Z,97116.09
2022-08-05T18:16:32.757Z,97116.41
2022-08-05T18:19:00.289Z,97108.88
2022-08-05T18:21:28.147Z,97116.38
2022-08-05T18:24:15.691Z,97113.50
2022-08-05T18:26:43.795Z,97119.53
2022-08-05T18:29:11.366Z,97120.25
2022-08-05T18:31:42.998Z,97124.81
2022-08-05T18:34:11.960Z,97118.13
2022-08-05T18:36:41.295Z,97122.25
2022-08-05T18:39:42.094Z,97121.44
2022-08-05T18:42:04.682Z,97121.44
2022-08-05T18:44:35.568Z,97123.66
2022-08-05T18:47:19.174Z,97122.75
2022-08-05T18:50:10.511Z,97126.81
2022-08-05T18:52:41.839Z,97127.59
2022-08-05T18:55:20.343Z,97141.19
2022-08-05T18:57:53.201Z,97138.84
2022-08-05T19:00:26.979Z,97136.28
2022-08-05T19:02:57.542Z,97140.34
2022-08-05T19:06:12.543Z,97137.13
2022-08-05T19:08:21.521Z,97130.66
2022-08-05T19:10:50.531Z,97136.56
2022-08-05T19:13:19.770Z,97141.31
2022-08-05T19:15:58.713Z,97147.28
2022-08-05T19:18:30.919Z,97150.88
2022-08-05T19:20:59.826Z,97150.78
2022-08-05T19:24:06.717Z,97157.94
2022-08-05T19:26:16.846Z,97151.97
2022-08-05T19:28:44.576Z,97151.56
2022-08-05T19:31:18.013Z,97143.66
2022-08-05T19:33:56.272Z,97145.44
2022-08-05T19:36:25.833Z,97143.47
2022-08-05T19:39:00.798Z,97145.03
2022-08-05T19:42:05.756Z,97144.56
2022-08-05T19:44:19.480Z,97142.09
2022-08-05T19:46:46.965Z,97146.47
2022-08-05T19:49:17.227Z,97153.41
2022-08-05T19:52:08.710Z,97148.72
2022-08-05T19:54:35.547Z,97153.31
2022-08-05T19:57:09.476Z,97152.72
2022-08-05T19:59:56.308Z,97147.22
2022-08-05T20:02:31.462Z,97147.94
2022-08-05T20:04:59.856Z,97155.13
2022-08-05T20:07:48.370Z,97143.84
2022-08-05T20:10:19.255Z,97143.31
2022-08-05T20:12:49.659Z,97147.06
2022-08-05T20:15:22.928Z,97135.78
2022-08-05T20:18:10.792Z,97140.06
2022-08-05T20:20:56.181Z,97142.75
2022-08-05T20:23:39.750Z,97142.56
2022-08-05T20:26:16.116Z,97141.34
2022-08-05T20:28:48.069Z,97137.53
2022-08-05T20:31:16.716Z,97139.00
2022-08-05T20:33:45.305Z,97148.88
2022-08-05T20:36:16.297Z,97145.25
2022-08-05T20:38:54.478Z,97154.09
2022-08-05T20:41:44.347Z,97147.16
2022-08-05T20:44:29.770Z,97148.47
2022-08-05T20:47:04.190Z,97154.25
2022-08-05T20:49:38.102Z,97153.75
2022-08-05T20:52:08.841Z,97155.56
2022-08-05T20:54:42.847Z,97146.53
2022-08-05T20:57:14.182Z,97156.31
2022-08-05T21:00:10.227Z,97152.97
2022-08-05T21:02:30.003Z,97154.47
2022-08-05T21:04:57.661Z,97162.19
2022-08-05T21:07:45.731Z,97158.59
2022-08-05T21:10:17.253Z,97156.16
2022-08-05T21:12:57.722Z,97164.53
2022-08-05T21:15:26.165Z,97161.59
2022-08-05T21:18:01.370Z,97162.59
2022-08-05T21:20:33.295Z,97160.59
2022-08-05T21:23:01.351Z,97173.69
2022-08-05T21:25:33.815Z,97170.91
2022-08-05T21:28:03.336Z,97181.78
2022-08-05T21:30:31.737Z,97184.91
2022-08-05T21:33:01.829Z,97185.00
2022-08-05T21:35:56.085Z,97183.34
2022-08-05T21:38:18.092Z,97180.81
2022-08-05T21:40:45.500Z,97187.28
2022-08-05T21:43:23.994Z,97187.72
2022-08-05T21:45:56.954Z,97180.59
2022-08-05T21:48:29.036Z,97177.09
2022-08-05T21:50:59.464Z,97172.09
2022-08-05T21:53:27.329Z,97175.00
2022-08-05T21:56:16.228Z,97173.78
2022-08-05T21:58:57.258Z,97169.84
2022-08-05T22:01:26.358Z,97170.56
2022-08-05T22:03:54.495Z,97174.56
2022-08-05T22:06:39.584Z,97169.91
2022-08-05T22:09:14.782Z,97180.63
2022-08-05T22:11:47.030Z,97175.59
2022-08-05T22:14:33.247Z,97181.63
2022-08-05T22:17:03.760Z,97180.31
2022-08-05T22:20:02.126Z,97181.09
2022-08-05T22:22:27.117Z,97185.22
2022-08-05T22:25:21.137Z,97178.25
2022-08-05T22:28:08.439Z,97179.84
2022-08-05T22:30:56.850Z,97177.03
2022-08-05T22:33:57.025Z,97176.59
2022-08-05T22:36:15.415Z,97179.28
2022-08-05T22:38:47.932Z,97181.97
2022-08-05T22:42:04.692Z,97177.59
2022-08-05T22:44:08.411Z,97187.09
2022-08-05T22:46:39.512Z,97184.97
2022-08-05T22:49:23.578Z,97182.06
2022-08-05T22:52:06.401Z,97181.97
2022-08-05T22:54:39.136Z,97180.25
2022-08-05T22:57:07.462Z,97174.56
2022-08-05T22:59:48.411Z,97178.91
2022-08-05T23:02:29.355Z,97178.59
2022-08-05T23:05:01.991Z,97173.22
2022-08-05T23:07:45.120Z,97173.13
2022-08-05T23:10:19.881Z,97169.09
2022-08-05T23:12:54.646Z,97165.84
2022-08-05T23:15:29.839Z,97172.78
2022-08-05T23:18:03.318Z,97168.06
2022-08-05T23:20:33.139Z,97171.75
2022-08-05T23:23:05.742Z,97177.22
2022-08-05T23:25:53.571Z,97180.13
2022-08-05T23:28:28.900Z,97242.81
2022-08-05T23:31:15.703Z,97211.66
2022-08-05T23:34:03.856Z,97234.25
2022-08-05T23:36:38.686Z,97234.31
2022-08-05T23:39:17.174Z,97236.53
2022-08-05T23:41:51.921Z,97235.84
2022-08-05T23:44:25.020Z,97238.28
2022-08-05T23:46:56.048Z,97241.53
2022-08-05T23:49:33.907Z,97251.47
2022-08-05T23:52:25.075Z,97256.28
2022-08-05T23:55:07.082Z,97262.41
2022-08-05T23:57:37.194Z,97267.97
